sensor_id;sensor_type;location;lat;lon;timestamp;pressure;altitude;pressure_sealevel;temperature;humidity
61109;BME280;46995;55.740;37.402;2023-03-15T00:00:51;98865.16;;;4.13;58.01
61109;BME280;46995;55.740;37.402;2023-03-15T00:03:19;98851.44;;;4.09;57.60
61109;BME280;46995;55.740;37.402;2023-03-15T00:05:46;98862.13;;;4.06;58.06
61109;BME280;46995;55.740;37.402;2023-03-15T00:08:13;98856.81;;;4.08;58.06
61109;BME280;46995;55.740;37.402;2023-03-15T00:10:40;98870.47;;;4.11;58.52
61109;BME280;46995;55.740;37.402;2023-03-15T00:13:06;98859.28;;;4.09;58.63
61109;BME280;46995;55.740;37.402;2023-03-15T00:15:32;98879.69;;;4.04;58.53
61109;BME280;46995;55.740;37.402;2023-03-15T00:17:58;98867.34;;;4.06;58.74
61109;BME280;46995;55.740;37.402;2023-03-15T00:20:29;98873.00;;;4.13;58.55
61109;BME280;46995;55.740;37.402;2023-03-15T00:22:55;98841.75;;;3.99;58.53
61109;BME280;46995;55.740;37.402;2023-03-15T00:25:21;98865.25;;;4.11;58.73
61109;BME280;46995;55.740;37.402;2023-03-15T00:27:48;98839.38;;;3.96;58.68
61109;BME280;46995;55.740;37.402;2023-03-15T00:30:14;98865.44;;;4.08;58.68
61109;BME280;46995;55.740;37.402;2023-03-15T00:32:40;98838.75;;;3.92;59.12
61109;BME280;46995;55.740;37.402;2023-03-15T00:35:06;98860.03;;;3.99;59.70
61109;BME280;46995;55.740;37.402;2023-03-15T00:37:34;98859.84;;;4.02;59.34
61109;BME280;46995;55.740;37.402;2023-03-15T00:40:02;98851.88;;;4.03;59.19
61109;BME280;46995;55.740;37.402;2023-03-15T00:42:30;98839.13;;;4.11;59.20
61109;BME280;46995;55.740;37.402;2023-03-15T00:44:56;98854.13;;;4.20;59.08
61109;BME280;46995;55.740;37.402;2023-03-15T00:47:22;98861.22;;;4.31;58.70
61109;BME280;46995;55.740;37.402;2023-03-15T00:49:47;98867.06;;;4.35;58.93
61109;BME280;46995;55.740;37.402;2023-03-15T00:52:16;98842.84;;;4.20;59.11
61109;BME280;46995;55.740;37.402;2023-03-15T00:54:52;98849.59;;;4.35;59.39
61109;BME280;46995;55.740;37.402;2023-03-15T00:57:19;98863.72;;;4.33;58.99
61109;BME280;46995;55.740;37.402;2023-03-15T00:59:45;98861.22;;;4.31;59.02
61109;BME280;46995;55.740;37.402;2023-03-15T01:02:10;98860.81;;;4.24;59.49
61109;BME280;46995;55.740;37.402;2023-03-15T01:04:36;98846.88;;;4.13;59.27
61109;BME280;46995;55.740;37.402;2023-03-15T01:07:03;98859.59;;;4.17;59.45
61109;BME280;46995;55.740;37.402;2023-03-15T01:09:29;98845.53;;;4.07;59.64
61109;BME280;46995;55.740;37.402;2023-03-15T01:11:57;98849.34;;;4.14;59.67
61109;BME280;46995;55.740;37.402;2023-03-15T01:14:23;98836.94;;;4.05;59.79
61109;BME280;46995;55.740;37.402;2023-03-15T01:16:49;98829.28;;;4.15;59.79
61109;BME280;46995;55.740;37.402;2023-03-15T01:19:15;98820.66;;;4.02;59.70
61109;BME280;46995;55.740;37.402;2023-03-15T01:21:41;98845.38;;;4.21;60.04
61109;BME280;46995;55.740;37.402;2023-03-15T01:24:11;98847.03;;;4.22;59.92
61109;BME280;46995;55.740;37.402;2023-03-15T01:26:37;98851.19;;;4.25;59.99
61109;BME280;46995;55.740;37.402;2023-03-15T01:29:03;98850.16;;;4.28;59.99
61109;BME280;46995;55.740;37.402;2023-03-15T01:31:29;98851.84;;;4.29;60.26
61109;BME280;46995;55.740;37.402;2023-03-15T01:33:56;98849.94;;;4.31;59.87
61109;BME280;46995;55.740;37.402;2023-03-15T01:36:23;98842.59;;;4.36;59.77
61109;BME280;46995;55.740;37.402;2023-03-15T01:38:49;98858.28;;;4.36;59.95
61109;BME280;46995;55.740;37.402;2023-03-15T01:41:18;98848.00;;;4.45;59.77
61109;BME280;46995;55.740;37.402;2023-03-15T01:43:44;98838.38;;;4.46;59.86
61109;BME280;46995;55.740;37.402;2023-03-15T01:51:39;98846.28;;;4.57;59.75
61109;BME280;46995;55.740;37.402;2023-03-15T01:54:12;98841.63;;;4.49;59.95
61109;BME280;46995;55.740;37.402;2023-03-15T01:56:44;98856.28;;;4.63;59.73
61109;BME280;46995;55.740;37.402;2023-03-15T01:59:16;98842.47;;;4.61;59.68
61109;BME280;46995;55.740;37.402;2023-03-15T02:01:45;98832.88;;;4.61;59.65
61109;BME280;46995;55.740;37.402;2023-03-15T02:04:18;98841.16;;;4.55;59.67
61109;BME280;46995;55.740;37.402;2023-03-15T02:06:51;98853.56;;;4.64;59.77
61109;BME280;46995;55.740;37.402;2023-03-15T02:09:39;98853.28;;;4.56;60.09
61109;BME280;46995;55.740;37.402;2023-03-15T02:12:10;98860.28;;;4.56;59.98
61109;BME280;46995;55.740;37.402;2023-03-15T02:14:38;98870.97;;;4.53;60.04
61109;BME280;46995;55.740;37.402;2023-03-15T02:17:07;98854.88;;;4.46;60.06
61109;BME280;46995;55.740;37.402;2023-03-15T02:19:41;98878.75;;;4.42;60.66
61109;BME280;46995;55.740;37.402;2023-03-15T02:22:26;98854.44;;;4.29;60.87
61109;BME280;46995;55.740;37.402;2023-03-15T02:27:46;98861.88;;;4.22;61.02
61109;BME280;46995;55.740;37.402;2023-03-15T02:30:13;98869.16;;;4.30;60.91
61109;BME280;46995;55.740;37.402;2023-03-15T02:32:40;98862.38;;;4.27;61.06
61109;BME280;46995;55.740;37.402;2023-03-15T02:35:06;98859.38;;;4.20;61.33
61109;BME280;46995;55.740;37.402;2023-03-15T02:37:33;98871.28;;;4.24;61.36
61109;BME280;46995;55.740;37.402;2023-03-15T02:39:59;98871.41;;;4.23;61.36
61109;BME280;46995;55.740;37.402;2023-03-15T02:42:25;98859.59;;;4.17;61.59
61109;BME280;46995;55.740;37.402;2023-03-15T02:44:55;98876.44;;;4.13;61.83
61109;BME280;46995;55.740;37.402;2023-03-15T02:47:27;98865.75;;;4.16;61.83
61109;BME280;46995;55.740;37.402;2023-03-15T02:49:56;98853.44;;;4.06;61.66
61109;BME280;46995;55.740;37.402;2023-03-15T02:52:23;98862.22;;;4.05;61.98
61109;BME280;46995;55.740;37.402;2023-03-15T02:54:49;98869.03;;;4.07;62.11
61109;BME280;46995;55.740;37.402;2023-03-15T02:57:16;98860.22;;;4.08;62.17
61109;BME280;46995;55.740;37.402;2023-03-15T02:59:44;98881.13;;;4.08;62.28
61109;BME280;46995;55.740;37.402;2023-03-15T03:02:11;98863.91;;;4.06;62.16
61109;BME280;46995;55.740;37.402;2023-03-15T03:04:40;98875.91;;;4.08;62.07
61109;BME280;46995;55.740;37.402;2023-03-15T03:07:06;98874.25;;;4.07;62.48
61109;BME280;46995;55.740;37.402;2023-03-15T03:09:41;98859.72;;;4.03;62.72
61109;BME280;46995;55.740;37.402;2023-03-15T03:12:09;98872.16;;;4.00;62.43
61109;BME280;46995;55.740;37.402;2023-03-15T03:14:35;98881.06;;;3.97;62.97
61109;BME280;46995;55.740;37.402;2023-03-15T03:17:03;98859.44;;;3.95;62.47
61109;BME280;46995;55.740;37.402;2023-03-15T03:19:30;98866.84;;;3.89;62.62
61109;BME280;46995;55.740;37.402;2023-03-15T03:21:57;98858.41;;;3.98;62.52
61109;BME280;46995;55.740;37.402;2023-03-15T03:24:22;98872.59;;;3.94;62.81
61109;BME280;46995;55.740;37.402;2023-03-15T03:26:52;98870.72;;;3.96;62.33
61109;BME280;46995;55.740;37.402;2023-03-15T03:29:24;98868.44;;;3.91;62.59
61109;BME280;46995;55.740;37.402;2023-03-15T03:31:50;98887.00;;;3.99;62.87
61109;BME280;46995;55.740;37.402;2023-03-15T03:34:19;98863.63;;;3.85;62.72
61109;BME280;46995;55.740;37.402;2023-03-15T03:36:45;98862.59;;;3.75;62.91
61109;BME280;46995;55.740;37.402;2023-03-15T03:39:15;98874.72;;;3.76;62.90
61109;BME280;46995;55.740;37.402;2023-03-15T03:41:43;98879.28;;;3.85;62.76
61109;BME280;46995;55.740;37.402;2023-03-15T03:44:11;98888.59;;;3.89;63.27
61109;BME280;46995;55.740;37.402;2023-03-15T03:46:38;98895.81;;;3.86;62.84
61109;BME280;46995;55.740;37.402;2023-03-15T03:49:04;98898.50;;;3.84;63.02
61109;BME280;46995;55.740;37.402;2023-03-15T03:51:29;98892.25;;;3.74;62.97
61109;BME280;46995;55.740;37.402;2023-03-15T03:53:58;98887.66;;;3.77;63.15
61109;BME280;46995;55.740;37.402;2023-03-15T03:56:25;98891.63;;;3.83;62.79
61109;BME280;46995;55.740;37.402;2023-03-15T03:58:53;98900.59;;;3.79;62.73
61109;BME280;46995;55.740;37.402;2023-03-15T04:01:25;98896.53;;;3.75;62.79
61109;BME280;46995;55.740;37.402;2023-03-15T04:03:53;98904.56;;;3.72;62.98
61109;BME280;46995;55.740;37.402;2023-03-15T04:06:20;98901.03;;;3.73;63.35
61109;BME280;46995;55.740;37.402;2023-03-15T04:08:47;98900.81;;;3.76;63.06
61109;BME280;46995;55.740;37.402;2023-03-15T04:11:19;98882.03;;;3.71;63.31
61109;BME280;46995;55.740;37.402;2023-03-15T04:13:53;98901.22;;;3.82;63.03
61109;BME280;46995;55.740;37.402;2023-03-15T04:16:20;98879.84;;;3.65;63.33
61109;BME280;46995;55.740;37.402;2023-03-15T04:18:56;98899.78;;;3.78;63.16
61109;BME280;46995;55.740;37.402;2023-03-15T04:21:21;98901.88;;;3.86;62.78
61109;BME280;46995;55.740;37.402;2023-03-15T04:23:51;98880.88;;;3.75;62.71
61109;BME280;46995;55.740;37.402;2023-03-15T04:26:50;98882.22;;;3.80;62.95
61109;BME280;46995;55.740;37.402;2023-03-15T04:29:24;98880.13;;;3.73;62.57
61109;BME280;46995;55.740;37.402;2023-03-15T04:32:10;98870.94;;;3.67;63.00
61109;BME280;46995;55.740;37.402;2023-03-15T04:34:48;98882.66;;;3.74;62.84
61109;BME280;46995;55.740;37.402;2023-03-15T04:37:35;98882.66;;;3.74;62.75
61109;BME280;46995;55.740;37.402;2023-03-15T04:40:29;98915.63;;;3.88;62.83
61109;BME280;46995;55.740;37.402;2023-03-15T04:43:20;98904.34;;;3.88;62.55
61109;BME280;46995;55.740;37.402;2023-03-15T04:46:12;98902.91;;;3.83;62.51
61109;BME280;46995;55.740;37.402;2023-03-15T04:48:57;98920.16;;;3.86;62.60
61109;BME280;46995;55.740;37.402;2023-03-15T04:51:34;98919.81;;;3.78;62.27
61109;BME280;46995;55.740;37.402;2023-03-15T04:54:36;98919.41;;;3.84;62.45
61109;BME280;46995;55.740;37.402;2023-03-15T04:57:21;98936.75;;;3.85;61.92
61109;BME280;46995;55.740;37.402;2023-03-15T04:59:47;98941.03;;;3.86;62.28
61109;BME280;46995;55.740;37.402;2023-03-15T05:02:36;98917.63;;;3.72;62.40
61109;BME280;46995;55.740;37.402;2023-03-15T05:05:25;98927.47;;;3.81;62.47
61109;BME280;46995;55.740;37.402;2023-03-15T05:08:09;98949.28;;;3.93;61.80
61109;BME280;46995;55.740;37.402;2023-03-15T05:11:02;98947.31;;;3.96;61.46
61109;BME280;46995;55.740;37.402;2023-03-15T05:13:54;98936.34;;;3.91;61.68
61109;BME280;46995;55.740;37.402;2023-03-15T05:16:44;98951.59;;;3.97;62.02
61109;BME280;46995;55.740;37.402;2023-03-15T05:19:41;98932.78;;;3.92;61.67
61109;BME280;46995;55.740;37.402;2023-03-15T05:22:46;98951.38;;;4.00;61.85
61109;BME280;46995;55.740;37.402;2023-03-15T05:25:32;98956.81;;;3.97;61.92
61109;BME280;46995;55.740;37.402;2023-03-15T05:27:58;98964.34;;;4.02;62.04
61109;BME280;46995;55.740;37.402;2023-03-15T05:30:51;98971.13;;;4.04;61.76
61109;BME280;46995;55.740;37.402;2023-03-15T05:33:29;98964.75;;;3.96;61.96
61109;BME280;46995;55.740;37.402;2023-03-15T05:36:18;98940.09;;;3.87;61.64
61109;BME280;46995;55.740;37.402;2023-03-15T05:39:17;98959.53;;;3.96;61.68
61109;BME280;46995;55.740;37.402;2023-03-15T05:42:06;98959.44;;;3.97;61.81
61109;BME280;46995;55.740;37.402;2023-03-15T05:44:54;98972.56;;;4.08;61.73
61109;BME280;46995;55.740;37.402;2023-03-15T05:47:45;98967.34;;;4.08;61.64
61109;BME280;46995;55.740;37.402;2023-03-15T05:50:23;98967.06;;;4.13;61.35
61109;BME280;46995;55.740;37.402;2023-03-15T05:53:09;98980.63;;;4.18;61.20
61109;BME280;46995;55.740;37.402;2023-03-15T05:55:44;98972.81;;;4.18;60.96
61109;BME280;46995;55.740;37.402;2023-03-15T05:58:45;98987.94;;;4.25;61.25
61109;BME280;46995;55.740;37.402;2023-03-15T06:01:43;98967.44;;;4.19;60.56
61109;BME280;46995;55.740;37.402;2023-03-15T06:04:18;98967.25;;;4.22;60.49
61109;BME280;46995;55.740;37.402;2023-03-15T06:06:44;98948.72;;;4.25;60.60
61109;BME280;46995;55.740;37.402;2023-03-15T06:09:11;98978.31;;;4.39;60.15
61109;BME280;46995;55.740;37.402;2023-03-15T06:11:38;98974.31;;;4.46;60.27
61109;BME280;46995;55.740;37.402;2023-03-15T06:14:06;98961.75;;;4.51;59.85
61109;BME280;46995;55.740;37.402;2023-03-15T06:16:54;98976.34;;;4.66;59.93
61109;BME280;46995;55.740;37.402;2023-03-15T06:19:40;98965.69;;;4.69;59.49
61109;BME280;46995;55.740;37.402;2023-03-15T06:22:06;98982.84;;;4.73;59.76
61109;BME280;46995;55.740;37.402;2023-03-15T06:24:49;98980.13;;;4.75;59.30
61109;BME280;46995;55.740;37.402;2023-03-15T06:27:15;98994.88;;;4.99;59.27
61109;BME280;46995;55.740;37.402;2023-03-15T06:29:40;98990.25;;;5.03;59.28
61109;BME280;46995;55.740;37.402;2023-03-15T06:32:26;98991.25;;;5.13;58.33
61109;BME280;46995;55.740;37.402;2023-03-15T06:34:52;99000.25;;;5.22;58.53
61109;BME280;46995;55.740;37.402;2023-03-15T06:37:19;98993.09;;;5.24;58.22
61109;BME280;46995;55.740;37.402;2023-03-15T06:39:47;98991.47;;;5.23;58.64
61109;BME280;46995;55.740;37.402;2023-03-15T06:42:13;99001.25;;;5.32;58.12
61109;BME280;46995;55.740;37.402;2023-03-15T06:44:40;99004.81;;;5.31;58.37
61109;BME280;46995;55.740;37.402;2023-03-15T06:47:08;98979.75;;;5.16;58.25
61109;BME280;46995;55.740;37.402;2023-03-15T06:49:36;99014.16;;;5.46;58.04
61109;BME280;46995;55.740;37.402;2023-03-15T06:52:04;98990.59;;;5.46;57.62
61109;BME280;46995;55.740;37.402;2023-03-15T06:54:32;98998.63;;;5.67;57.89
61109;BME280;46995;55.740;37.402;2023-03-15T06:56:58;98990.56;;;5.70;57.15
61109;BME280;46995;55.740;37.402;2023-03-15T06:59:24;98994.75;;;5.83;56.82
61109;BME280;46995;55.740;37.402;2023-03-15T07:01:50;99012.00;;;6.10;57.00
61109;BME280;46995;55.740;37.402;2023-03-15T07:04:16;99026.81;;;6.33;56.59
61109;BME280;46995;55.740;37.402;2023-03-15T07:06:42;99001.06;;;6.27;56.07
61109;BME280;46995;55.740;37.402;2023-03-15T07:09:10;99014.53;;;6.45;56.13
61109;BME280;46995;55.740;37.402;2023-03-15T07:11:36;99025.63;;;6.48;56.05
61109;BME280;46995;55.740;37.402;2023-03-15T07:14:01;99005.81;;;6.44;55.85
61109;BME280;46995;55.740;37.402;2023-03-15T07:16:27;99028.00;;;6.62;55.86
61109;BME280;46995;55.740;37.402;2023-03-15T07:18:53;99030.88;;;6.70;56.18
61109;BME280;46995;55.740;37.402;2023-03-15T07:21:21;99024.19;;;6.77;55.50
61109;BME280;46995;55.740;37.402;2023-03-15T07:23:48;99007.13;;;6.94;54.94
61109;BME280;46995;55.740;37.402;2023-03-15T07:26:14;99029.88;;;7.05;54.99
61109;BME280;46995;55.740;37.402;2023-03-15T07:28:40;99013.16;;;7.17;54.83
61109;BME280;46995;55.740;37.402;2023-03-15T07:31:06;99031.25;;;7.31;54.74
61109;BME280;46995;55.740;37.402;2023-03-15T07:33:33;99017.41;;;7.29;54.55
61109;BME280;46995;55.740;37.402;2023-03-15T07:36:06;99019.06;;;7.30;54.52
61109;BME280;46995;55.740;37.402;2023-03-15T07:38:33;99007.16;;;7.26;54.66
61109;BME280;46995;55.740;37.402;2023-03-15T07:41:09;99027.16;;;7.38;54.98
61109;BME280;46995;55.740;37.402;2023-03-15T07:43:39;99024.41;;;7.40;54.76
61109;BME280;46995;55.740;37.402;2023-03-15T07:46:11;99028.72;;;7.41;55.26
61109;BME280;46995;55.740;37.402;2023-03-15T07:48:37;99019.28;;;7.38;54.91
61109;BME280;46995;55.740;37.402;2023-03-15T07:51:03;99024.41;;;7.40;54.87
61109;BME280;46995;55.740;37.402;2023-03-15T07:53:29;99013.38;;;7.25;54.66
61109;BME280;46995;55.740;37.402;2023-03-15T07:55:55;99009.94;;;7.13;55.10
61109;BME280;46995;55.740;37.402;2023-03-15T07:58:21;99036.41;;;7.21;55.09
61109;BME280;46995;55.740;37.402;2023-03-15T08:00:46;99040.09;;;7.30;55.03
61109;BME280;46995;55.740;37.402;2023-03-15T08:03:12;99028.63;;;7.31;54.84
61109;BME280;46995;55.740;37.402;2023-03-15T08:05:38;99026.09;;;7.41;54.87
61109;BME280;46995;55.740;37.402;2023-03-15T08:08:04;99042.84;;;7.60;54.38
61109;BME280;46995;55.740;37.402;2023-03-15T08:10:30;99025.09;;;7.53;54.28
61109;BME280;46995;55.740;37.402;2023-03-15T08:12:56;99056.94;;;7.59;54.54
61109;BME280;46995;55.740;37.402;2023-03-15T08:15:22;99048.53;;;7.45;54.61
61109;BME280;46995;55.740;37.402;2023-03-15T08:17:48;99053.09;;;7.32;54.98
61109;BME280;46995;55.740;37.402;2023-03-15T08:20:15;99066.63;;;7.16;54.99
61109;BME280;46995;55.740;37.402;2023-03-15T08:22:46;99046.84;;;6.90;55.62
61109;BME280;46995;55.740;37.402;2023-03-15T08:25:14;99064.50;;;6.88;55.66
61109;BME280;46995;55.740;37.402;2023-03-15T08:27:41;99078.81;;;6.84;55.58
61109;BME280;46995;55.740;37.402;2023-03-15T08:30:08;99064.50;;;6.65;55.84
61109;BME280;46995;55.740;37.402;2023-03-15T08:32:44;99054.25;;;6.62;55.71
61109;BME280;46995;55.740;37.402;2023-03-15T08:35:11;99060.69;;;6.69;56.69
61109;BME280;46995;55.740;37.402;2023-03-15T08:37:38;99046.75;;;6.69;56.22
61109;BME280;46995;55.740;37.402;2023-03-15T08:40:04;99067.38;;;6.96;55.96
61109;BME280;46995;55.740;37.402;2023-03-15T08:42:37;99069.75;;;7.10;55.69
61109;BME280;46995;55.740;37.402;2023-03-15T08:45:05;99056.81;;;7.18;55.38
61109;BME280;46995;55.740;37.402;2023-03-15T08:47:32;99053.25;;;7.19;55.15
61109;BME280;46995;55.740;37.402;2023-03-15T08:50:08;99067.41;;;7.28;55.15
61109;BME280;46995;55.740;37.402;2023-03-15T08:52:35;99040.34;;;7.27;55.42
61109;BME280;46995;55.740;37.402;2023-03-15T08:55:02;99046.28;;;7.29;55.10
61109;BME280;46995;55.740;37.402;2023-03-15T08:57:30;99027.25;;;7.16;55.25
61109;BME280;46995;55.740;37.402;2023-03-15T09:00:02;99039.56;;;7.47;55.10
61109;BME280;46995;55.740;37.402;2023-03-15T09:02:32;99052.66;;;7.58;55.31
61109;BME280;46995;55.740;37.402;2023-03-15T09:04:58;99038.31;;;7.62;55.28
61109;BME280;46995;55.740;37.402;2023-03-15T09:07:25;99045.19;;;7.75;55.15
61109;BME280;46995;55.740;37.402;2023-03-15T09:09:51;99045.44;;;7.72;55.22
61109;BME280;46995;55.740;37.402;2023-03-15T09:12:19;99046.44;;;7.59;55.45
61109;BME280;46995;55.740;37.402;2023-03-15T09:14:46;99058.88;;;7.57;55.62
61109;BME280;46995;55.740;37.402;2023-03-15T09:17:12;99036.25;;;7.34;56.08
61109;BME280;46995;55.740;37.402;2023-03-15T09:19:38;99037.00;;;7.25;56.42
61109;BME280;46995;55.740;37.402;2023-03-15T09:22:05;99029.59;;;7.19;56.62
61109;BME280;46995;55.740;37.402;2023-03-15T09:24:32;99044.03;;;7.24;56.68
61109;BME280;46995;55.740;37.402;2023-03-15T09:26:58;99058.84;;;7.26;56.72
61109;BME280;46995;55.740;37.402;2023-03-15T09:29:28;99048.69;;;7.32;56.71
61109;BME280;46995;55.740;37.402;2023-03-15T09:31:54;99056.19;;;7.37;56.48
61109;BME280;46995;55.740;37.402;2023-03-15T09:34:20;99048.69;;;7.32;56.44
61109;BME280;46995;55.740;37.402;2023-03-15T09:36:46;99059.88;;;7.45;56.46
61109;BME280;46995;55.740;37.402;2023-03-15T09:39:20;99071.31;;;7.55;56.46
61109;BME280;46995;55.740;37.402;2023-03-15T09:41:50;99052.28;;;7.63;56.08
61109;BME280;46995;55.740;37.402;2023-03-15T09:49:31;99064.97;;;7.90;55.68
61109;BME280;46995;55.740;37.402;2023-03-15T09:52:25;99060.63;;;8.00;55.74
61109;BME280;46995;55.740;37.402;2023-03-15T09:54:59;99063.63;;;8.16;56.52
61109;BME280;46995;55.740;37.402;2023-03-15T10:00:14;99053.19;;;8.05;55.35
61109;BME280;46995;55.740;37.402;2023-03-15T10:02:51;99063.44;;;8.08;55.61
61109;BME280;46995;55.740;37.402;2023-03-15T10:05:24;99042.50;;;8.06;55.27
61109;BME280;46995;55.740;37.402;2023-03-15T10:07:53;99058.16;;;8.08;55.56
61109;BME280;46995;55.740;37.402;2023-03-15T10:10:31;99054.06;;;8.15;55.46
61109;BME280;46995;55.740;37.402;2023-03-15T10:15:52;99063.34;;;8.30;55.36
61109;BME280;46995;55.740;37.402;2023-03-15T10:21:57;99058.56;;;8.45;55.78
61109;BME280;46995;55.740;37.402;2023-03-15T10:29:54;99029.97;;;8.61;54.76
61109;BME280;46995;55.740;37.402;2023-03-15T10:32:26;99031.41;;;8.75;54.38
61109;BME280;46995;55.740;37.402;2023-03-15T10:34:55;99057.75;;;9.05;54.06
61109;BME280;46995;55.740;37.402;2023-03-15T10:37:24;99048.19;;;9.14;53.80
61109;BME280;46995;55.740;37.402;2023-03-15T10:39:56;99064.84;;;9.24;53.63
61109;BME280;46995;55.740;37.402;2023-03-15T10:42:31;99060.84;;;9.29;53.65
61109;BME280;46995;55.740;37.402;2023-03-15T10:44:58;99067.94;;;9.39;53.57
61109;BME280;46995;55.740;37.402;2023-03-15T10:47:42;99067.94;;;9.39;53.33
61109;BME280;46995;55.740;37.402;2023-03-15T10:50:09;99054.59;;;9.30;53.71
61109;BME280;46995;55.740;37.402;2023-03-15T10:52:39;99058.75;;;9.33;53.71
61109;BME280;46995;55.740;37.402;2023-03-15T10:55:15;99049.22;;;9.42;53.62
61109;BME280;46995;55.740;37.402;2023-03-15T10:57:54;99038.81;;;9.50;53.09
61109;BME280;46995;55.740;37.402;2023-03-15T11:00:29;99047.97;;;9.65;52.95
61109;BME280;46995;55.740;37.402;2023-03-15T11:03:19;99030.34;;;9.75;52.36
61109;BME280;46995;55.740;37.402;2023-03-15T11:05:48;99053.66;;;9.79;52.88
61109;BME280;46995;55.740;37.402;2023-03-15T11:08:19;99054.66;;;9.78;52.61
61109;BME280;46995;55.740;37.402;2023-03-15T11:10:53;99052.69;;;9.90;52.66
61109;BME280;46995;55.740;37.402;2023-03-15T11:13:26;99053.81;;;9.97;52.34
61109;BME280;46995;55.740;37.402;2023-03-15T11:18:57;99061.72;;;9.97;52.38
61109;BME280;46995;55.740;37.402;2023-03-15T11:21:28;99063.81;;;10.03;51.91
61109;BME280;46995;55.740;37.402;2023-03-15T11:24:01;99072.56;;;10.13;51.92
61109;BME280;46995;55.740;37.402;2023-03-15T11:26:35;99033.81;;;10.04;51.36
61109;BME280;46995;55.740;37.402;2023-03-15T11:31:38;99032.41;;;10.00;52.17
61109;BME280;46995;55.740;37.402;2023-03-15T11:34:08;99045.91;;;10.16;51.29
61109;BME280;46995;55.740;37.402;2023-03-15T11:36:43;99049.91;;;10.20;51.14
61109;BME280;46995;55.740;37.402;2023-03-15T11:39:14;99047.28;;;10.20;51.76
61109;BME280;46995;55.740;37.402;2023-03-15T11:41:53;99061.03;;;10.34;51.25
61109;BME280;46995;55.740;37.402;2023-03-15T11:44:28;99037.00;;;10.27;51.05
61109;BME280;46995;55.740;37.402;2023-03-15T11:47:45;99040.00;;;10.42;51.81
61109;BME280;46995;55.740;37.402;2023-03-15T11:50:15;99037.50;;;10.50;50.89
61109;BME280;46995;55.740;37.402;2023-03-15T11:52:41;99019.06;;;10.40;51.05
61109;BME280;46995;55.740;37.402;2023-03-15T11:55:23;99050.41;;;10.53;50.86
61109;BME280;46995;55.740;37.402;2023-03-15T11:57:50;99026.56;;;10.35;51.01
61109;BME280;46995;55.740;37.402;2023-03-15T12:02:49;99004.09;;;10.02;51.47
61109;BME280;46995;55.740;37.402;2023-03-15T12:08:19;99044.66;;;10.01;52.03
61109;BME280;46995;55.740;37.402;2023-03-15T12:10:47;99040.78;;;9.86;52.38
61109;BME280;46995;55.740;37.402;2023-03-15T12:13:22;99058.25;;;9.87;52.67
61109;BME280;46995;55.740;37.402;2023-03-15T12:15:50;99057.44;;;9.77;52.64
61109;BME280;46995;55.740;37.402;2023-03-15T12:18:19;99028.28;;;9.69;52.46
61109;BME280;46995;55.740;37.402;2023-03-15T12:20:55;99014.69;;;9.83;52.32
61109;BME280;46995;55.740;37.402;2023-03-15T12:26:12;99045.75;;;9.89;52.37
61109;BME280;46995;55.740;37.402;2023-03-15T12:29:01;99046.03;;;9.96;52.41
61109;BME280;46995;55.740;37.402;2023-03-15T12:34:22;99049.09;;;9.82;52.60
61109;BME280;46995;55.740;37.402;2023-03-15T12:36:50;99052.28;;;9.56;52.71
61109;BME280;46995;55.740;37.402;2023-03-15T12:39:21;99034.38;;;9.41;53.32
61109;BME280;46995;55.740;37.402;2023-03-15T12:41:59;99047.97;;;9.55;53.01
61109;BME280;46995;55.740;37.402;2023-03-15T12:47:02;99064.09;;;10.19;51.79
61109;BME280;46995;55.740;37.402;2023-03-15T12:49:32;99031.16;;;10.14;51.48
61109;BME280;46995;55.740;37.402;2023-03-15T12:52:12;99053.66;;;10.08;51.61
61109;BME280;46995;55.740;37.402;2023-03-15T12:54:45;99061.31;;;9.92;52.39
61109;BME280;46995;55.740;37.402;2023-03-15T12:57:22;99055.34;;;9.81;52.26
61109;BME280;46995;55.740;37.402;2023-03-15T13:00:11;99060.06;;;9.96;51.99
61109;BME280;46995;55.740;37.402;2023-03-15T13:02:49;99015.09;;;9.98;51.44
61109;BME280;46995;55.740;37.402;2023-03-15T13:05:21;99062.16;;;10.22;51.63
61109;BME280;46995;55.740;37.402;2023-03-15T13:08:08;99038.28;;;10.04;51.35
61109;BME280;46995;55.740;37.402;2023-03-15T13:18:58;99035.75;;;9.45;52.71
61109;BME280;46995;55.740;37.402;2023-03-15T13:21:33;99046.59;;;9.61;53.11
61109;BME280;46995;55.740;37.402;2023-03-15T13:24:02;99042.44;;;9.87;52.50
61109;BME280;46995;55.740;37.402;2023-03-15T13:26:43;99038.22;;;10.33;51.25
61109;BME280;46995;55.740;37.402;2023-03-15T13:29:20;99035.09;;;10.66;50.59
61109;BME280;46995;55.740;37.402;2023-03-15T13:32:07;99025.88;;;10.70;50.70
61109;BME280;46995;55.740;37.402;2023-03-15T13:34:36;99037.25;;;10.80;51.13
61109;BME280;46995;55.740;37.402;2023-03-15T13:37:02;99029.22;;;10.72;50.65
61109;BME280;46995;55.740;37.402;2023-03-15T13:39:33;99026.78;;;10.61;50.67
61109;BME280;46995;55.740;37.402;2023-03-15T13:42:01;99045.91;;;10.63;50.89
61109;BME280;46995;55.740;37.402;2023-03-15T13:44:28;99037.47;;;10.59;50.68
61109;BME280;46995;55.740;37.402;2023-03-15T13:46:56;99027.38;;;10.45;50.82
61109;BME280;46995;55.740;37.402;2023-03-15T13:49:23;99041.81;;;10.51;51.24
61109;BME280;46995;55.740;37.402;2023-03-15T13:51:51;99042.31;;;10.64;50.81
61109;BME280;46995;55.740;37.402;2023-03-15T13:54:25;99047.91;;;10.61;50.52
61109;BME280;46995;55.740;37.402;2023-03-15T13:59:30;99040.88;;;10.33;51.08
61109;BME280;46995;55.740;37.402;2023-03-15T14:02:00;99045.47;;;10.31;51.69
61109;BME280;46995;55.740;37.402;2023-03-15T14:04:27;99030.06;;;10.16;51.74
61109;BME280;46995;55.740;37.402;2023-03-15T14:07:14;99006.75;;;9.73;52.82
61109;BME280;46995;55.740;37.402;2023-03-15T14:09:45;99033.78;;;9.27;53.50
61109;BME280;46995;55.740;37.402;2023-03-15T14:12:20;99045.88;;;8.90;54.33
61109;BME280;46995;55.740;37.402;2023-03-15T14:14:52;99042.22;;;8.41;55.51
61109;BME280;46995;55.740;37.402;2023-03-15T14:17:26;99059.41;;;8.25;56.43
61109;BME280;46995;55.740;37.402;2023-03-15T14:20:06;99047.72;;;7.97;56.43
61109;BME280;46995;55.740;37.402;2023-03-15T14:22:40;99043.28;;;7.77;57.24